sensor_id;sensor_type;location;lat;lon;timestamp;temperature;humidity
1702;DHT22;848;48.354;10.064;2022-11-21T00:02:12;5.40;99.90
1702;DHT22;848;48.354;10.064;2022-11-21T00:04:39;5.40;99.90
1702;DHT22;848;48.354;10.064;2022-11-21T00:07:06;5.50;99.90
1702;DHT22;848;48.354;10.064;2022-11-21T00:09:33;5.50;99.90
1702;DHT22;848;48.354;10.064;2022-11-21T00:12:03;5.50;99.90
1702;DHT22;848;48.354;10.064;2022-11-21T00:14:29;5.60;99.90
1702;DHT22;848;48.354;10.064;2022-11-21T00:16:56;5.50;99.90
1702;DHT22;848;48.354;10.064;2022-11-21T00:19:23;5.60;99.90
1702;DHT22;848;48.354;10.064;2022-11-21T00:21:50;5.60;99.90
1702;DHT22;848;48.354;10.064;2022-11-21T00:24:17;5.50;99.90
1702;DHT22;848;48.354;10.064;2022-11-21T00:26:44;5.70;99.90
1702;DHT22;848;48.354;10.064;2022-11-21T00:29:12;5.60;99.90
1702;DHT22;848;48.354;10.064;2022-11-21T00:31:39;5.60;99.90
1702;DHT22;848;48.354;10.064;2022-11-21T00:34:06;5.80;99.90
1702;DHT22;848;48.354;10.064;2022-11-21T00:36:33;5.50;99.90
1702;DHT22;848;48.354;10.064;2022-11-21T00:39:06;5.50;99.90
1702;DHT22;848;48.354;10.064;2022-11-21T00:41:33;5.50;99.90
1702;DHT22;848;48.354;10.064;2022-11-21T00:44:00;5.50;99.90
1702;DHT22;848;48.354;10.064;2022-11-21T00:46:28;5.60;99.90
1702;DHT22;848;48.354;10.064;2022-11-21T00:48:55;5.60;99.90
1702;DHT22;848;48.354;10.064;2022-11-21T00:51:22;5.70;99.90
1702;DHT22;848;48.354;10.064;2022-11-21T00:53:49;5.70;99.90
1702;DHT22;848;48.354;10.064;2022-11-21T00:56:16;5.70;99.90
1702;DHT22;848;48.354;10.064;2022-11-21T00:58:43;5.70;99.90
1702;DHT22;848;48.354;10.064;2022-11-21T01:01:11;5.70;99.90
1702;DHT22;848;48.354;10.064;2022-11-21T01:03:40;5.60;99.90
1702;DHT22;848;48.354;10.064;2022-11-21T01:06:08;5.70;99.90
1702;DHT22;848;48.354;10.064;2022-11-21T01:08:37;5.70;99.90
1702;DHT22;848;48.354;10.064;2022-11-21T01:11:06;5.70;99.90
1702;DHT22;848;48.354;10.064;2022-11-21T01:13:34;5.70;99.90
1702;DHT22;848;48.354;10.064;2022-11-21T01:16:05;5.70;99.90
1702;DHT22;848;48.354;10.064;2022-11-21T01:18:32;5.70;99.90
1702;DHT22;848;48.354;10.064;2022-11-21T01:21:02;5.80;99.90
1702;DHT22;848;48.354;10.064;2022-11-21T01:23:29;5.70;99.90
1702;DHT22;848;48.354;10.064;2022-11-21T01:26:00;5.70;99.90
1702;DHT22;848;48.354;10.064;2022-11-21T01:28:27;5.70;99.90
1702;DHT22;848;48.354;10.064;2022-11-21T01:30:54;5.80;99.90
1702;DHT22;848;48.354;10.064;2022-11-21T01:33:21;5.70;99.90
1702;DHT22;848;48.354;10.064;2022-11-21T01:35:49;5.70;99.90
1702;DHT22;848;48.354;10.064;2022-11-21T01:38:20;5.70;99.90
1702;DHT22;848;48.354;10.064;2022-11-21T01:40:47;5.70;99.90
1702;DHT22;848;48.354;10.064;2022-11-21T01:43:15;5.70;99.90
1702;DHT22;848;48.354;10.064;2022-11-21T01:45:56;5.70;99.90
1702;DHT22;848;48.354;10.064;2022-11-21T01:48:28;5.70;99.90
1702;DHT22;848;48.354;10.064;2022-11-21T01:51:00;5.60;99.90
1702;DHT22;848;48.354;10.064;2022-11-21T01:53:30;5.60;99.90
1702;DHT22;848;48.354;10.064;2022-11-21T01:55:57;5.60;99.90
1702;DHT22;848;48.354;10.064;2022-11-21T01:58:24;5.60;99.90
1702;DHT22;848;48.354;10.064;2022-11-21T02:00:51;5.60;99.90
1702;DHT22;848;48.354;10.064;2022-11-21T02:03:20;5.60;99.90
1702;DHT22;848;48.354;10.064;2022-11-21T02:05:49;5.60;99.90
1702;DHT22;848;48.354;10.064;2022-11-21T02:08:22;5.60;99.90
1702;DHT22;848;48.354;10.064;2022-11-21T02:10:58;5.60;99.90
1702;DHT22;848;48.354;10.064;2022-11-21T02:13:28;5.70;99.90
1702;DHT22;848;48.354;10.064;2022-11-21T02:15:55;5.60;99.90
1702;DHT22;848;48.354;10.064;2022-11-21T02:18:22;5.60;99.90
1702;DHT22;848;48.354;10.064;2022-11-21T02:20:59;5.50;99.90
1702;DHT22;848;48.354;10.064;2022-11-21T02:23:33;5.60;99.90
1702;DHT22;848;48.354;10.064;2022-11-21T02:26:04;5.60;99.90
1702;DHT22;848;48.354;10.064;2022-11-21T02:28:31;5.70;99.90
1702;DHT22;848;48.354;10.064;2022-11-21T02:30:58;5.70;99.90
1702;DHT22;848;48.354;10.064;2022-11-21T02:33:25;5.70;99.90
1702;DHT22;848;48.354;10.064;2022-11-21T02:35:58;5.70;99.90
1702;DHT22;848;48.354;10.064;2022-11-21T02:38:28;5.70;99.90
1702;DHT22;848;48.354;10.064;2022-11-21T02:41:02;5.80;99.90
1702;DHT22;848;48.354;10.064;2022-11-21T02:43:37;5.70;99.90
1702;DHT22;848;48.354;10.064;2022-11-21T02:46:05;5.80;99.90
1702;DHT22;848;48.354;10.064;2022-11-21T02:48:32;5.70;99.90
1702;DHT22;848;48.354;10.064;2022-11-21T02:50:59;5.70;99.90
1702;DHT22;848;48.354;10.064;2022-11-21T02:53:26;5.80;99.90
1702;DHT22;848;48.354;10.064;2022-11-21T02:55:53;5.80;99.90
1702;DHT22;848;48.354;10.064;2022-11-21T02:58:20;5.80;99.90
1702;DHT22;848;48.354;10.064;2022-11-21T03:00:48;5.90;99.90
1702;DHT22;848;48.354;10.064;2022-11-21T03:03:15;5.80;99.90
1702;DHT22;848;48.354;10.064;2022-11-21T03:05:42;6.00;99.90
1702;DHT22;848;48.354;10.064;2022-11-21T03:08:09;5.90;99.90
1702;DHT22;848;48.354;10.064;2022-11-21T03:10:36;5.90;99.90
1702;DHT22;848;48.354;10.064;2022-11-21T03:13:05;6.00;99.90
1702;DHT22;848;48.354;10.064;2022-11-21T03:15:33;5.90;99.90
1702;DHT22;848;48.354;10.064;2022-11-21T03:18:02;5.90;99.90
1702;DHT22;848;48.354;10.064;2022-11-21T03:20:29;5.90;99.90
1702;DHT22;848;48.354;10.064;2022-11-21T03:22:56;5.80;99.90
1702;DHT22;848;48.354;10.064;2022-11-21T03:25:23;5.80;99.90
1702;DHT22;848;48.354;10.064;2022-11-21T03:27:51;5.80;99.90
1702;DHT22;848;48.354;10.064;2022-11-21T03:30:19;5.80;99.90
1702;DHT22;848;48.354;10.064;2022-11-21T03:32:46;5.80;99.90
1702;DHT22;848;48.354;10.064;2022-11-21T03:35:15;6.10;99.90
1702;DHT22;848;48.354;10.064;2022-11-21T03:37:42;5.90;99.90
1702;DHT22;848;48.354;10.064;2022-11-21T03:40:10;5.90;99.90
1702;DHT22;848;48.354;10.064;2022-11-21T03:42:37;5.90;99.90
1702;DHT22;848;48.354;10.064;2022-11-21T03:45:05;5.90;99.90
1702;DHT22;848;48.354;10.064;2022-11-21T03:47:32;5.80;99.90
1702;DHT22;848;48.354;10.064;2022-11-21T03:49:59;5.90;99.90
1702;DHT22;848;48.354;10.064;2022-11-21T03:52:28;5.80;99.90
1702;DHT22;848;48.354;10.064;2022-11-21T03:54:54;6.00;99.90
1702;DHT22;848;48.354;10.064;2022-11-21T03:57:21;5.90;99.90
1702;DHT22;848;48.354;10.064;2022-11-21T03:59:48;5.70;99.90
1702;DHT22;848;48.354;10.064;2022-11-21T04:02:15;5.70;99.90
1702;DHT22;848;48.354;10.064;2022-11-21T04:04:42;5.60;99.90
1702;DHT22;848;48.354;10.064;2022-11-21T04:07:09;5.60;99.90
1702;DHT22;848;48.354;10.064;2022-11-21T04:09:37;5.60;99.90
1702;DHT22;848;48.354;10.064;2022-11-21T04:12:04;5.50;99.90
1702;DHT22;848;48.354;10.064;2022-11-21T04:14:31;5.50;99.90
1702;DHT22;848;48.354;10.064;2022-11-21T04:16:58;5.60;99.90
1702;DHT22;848;48.354;10.064;2022-11-21T04:19:25;5.50;99.90
1702;DHT22;848;48.354;10.064;2022-11-21T04:21:52;5.50;99.90
1702;DHT22;848;48.354;10.064;2022-11-21T04:24:19;5.60;99.90
1702;DHT22;848;48.354;10.064;2022-11-21T04:26:47;5.80;99.90
1702;DHT22;848;48.354;10.064;2022-11-21T04:29:14;5.60;99.90
1702;DHT22;848;48.354;10.064;2022-11-21T04:31:41;5.50;99.90
1702;DHT22;848;48.354;10.064;2022-11-21T04:34:07;5.50;99.90
1702;DHT22;848;48.354;10.064;2022-11-21T04:36:34;5.50;99.90
1702;DHT22;848;48.354;10.064;2022-11-21T04:39:01;5.50;99.90
1702;DHT22;848;48.354;10.064;2022-11-21T04:41:28;5.50;99.90
1702;DHT22;848;48.354;10.064;2022-11-21T04:43:57;5.50;99.90
1702;DHT22;848;48.354;10.064;2022-11-21T04:46:23;5.50;99.90
1702;DHT22;848;48.354;10.064;2022-11-21T04:48:54;5.60;99.90
1702;DHT22;848;48.354;10.064;2022-11-21T04:51:20;5.50;99.90
1702;DHT22;848;48.354;10.064;2022-11-21T04:53:47;5.50;99.90
1702;DHT22;848;48.354;10.064;2022-11-21T04:56:16;5.50;99.90
1702;DHT22;848;48.354;10.064;2022-11-21T04:58:44;5.50;99.90
1702;DHT22;848;48.354;10.064;2022-11-21T05:01:12;5.60;99.90
1702;DHT22;848;48.354;10.064;2022-11-21T05:03:39;5.50;99.90
1702;DHT22;848;48.354;10.064;2022-11-21T05:06:06;5.40;99.90
1702;DHT22;848;48.354;10.064;2022-11-21T05:08:33;5.50;99.90
1702;DHT22;848;48.354;10.064;2022-11-21T05:10:59;5.40;99.90
1702;DHT22;848;48.354;10.064;2022-11-21T05:13:44;5.30;99.90
1702;DHT22;848;48.354;10.064;2022-11-21T05:16:12;5.30;99.90
1702;DHT22;848;48.354;10.064;2022-11-21T05:18:39;5.30;99.90
1702;DHT22;848;48.354;10.064;2022-11-21T05:21:05;5.20;99.90
1702;DHT22;848;48.354;10.064;2022-11-21T05:23:32;5.20;99.90
1702;DHT22;848;48.354;10.064;2022-11-21T05:25:59;5.10;99.90
1702;DHT22;848;48.354;10.064;2022-11-21T05:28:26;5.10;99.90
1702;DHT22;848;48.354;10.064;2022-11-21T05:30:55;5.00;99.90
1702;DHT22;848;48.354;10.064;2022-11-21T05:33:23;5.10;99.90
1702;DHT22;848;48.354;10.064;2022-11-21T05:35:50;5.10;99.90
1702;DHT22;848;48.354;10.064;2022-11-21T05:38:17;5.10;99.90
1702;DHT22;848;48.354;10.064;2022-11-21T05:40:44;5.00;99.90
1702;DHT22;848;48.354;10.064;2022-11-21T05:43:11;5.00;99.90
1702;DHT22;848;48.354;10.064;2022-11-21T05:45:55;5.00;99.90
1702;DHT22;848;48.354;10.064;2022-11-21T05:48:23;5.00;99.90
1702;DHT22;848;48.354;10.064;2022-11-21T05:50:50;4.90;99.90
1702;DHT22;848;48.354;10.064;2022-11-21T05:53:17;5.10;99.90
1702;DHT22;848;48.354;10.064;2022-11-21T05:55:44;4.90;99.90
1702;DHT22;848;48.354;10.064;2022-11-21T05:58:11;5.00;99.90
1702;DHT22;848;48.354;10.064;2022-11-21T06:00:38;5.10;99.90
1702;DHT22;848;48.354;10.064;2022-11-21T06:03:07;5.00;99.90
1702;DHT22;848;48.354;10.064;2022-11-21T06:05:58;5.00;99.90
1702;DHT22;848;48.354;10.064;2022-11-21T06:08:25;5.00;99.90
1702;DHT22;848;48.354;10.064;2022-11-21T06:10:52;4.90;99.90
1702;DHT22;848;48.354;10.064;2022-11-21T06:13:19;4.90;99.90
1702;DHT22;848;48.354;10.064;2022-11-21T06:15:53;4.90;99.90
1702;DHT22;848;48.354;10.064;2022-11-21T06:18:21;5.00;99.90
1702;DHT22;848;48.354;10.064;2022-11-21T06:20:48;5.10;99.90
1702;DHT22;848;48.354;10.064;2022-11-21T06:23:17;5.10;99.90
1702;DHT22;848;48.354;10.064;2022-11-21T06:25:44;5.10;99.90
1702;DHT22;848;48.354;10.064;2022-11-21T06:28:11;5.00;99.90
1702;DHT22;848;48.354;10.064;2022-11-21T06:30:38;5.00;99.90
1702;DHT22;848;48.354;10.064;2022-11-21T06:33:05;5.00;99.90
1702;DHT22;848;48.354;10.064;2022-11-21T06:35:36;4.90;99.90
1702;DHT22;848;48.354;10.064;2022-11-21T06:38:03;4.90;99.90
1702;DHT22;848;48.354;10.064;2022-11-21T06:40:31;4.90;99.90
1702;DHT22;848;48.354;10.064;2022-11-21T06:42:58;4.80;99.90
1702;DHT22;848;48.354;10.064;2022-11-21T06:45:25;4.70;99.90
1702;DHT22;848;48.354;10.064;2022-11-21T06:47:52;4.70;99.90
1702;DHT22;848;48.354;10.064;2022-11-21T06:50:19;4.70;99.90
1702;DHT22;848;48.354;10.064;2022-11-21T06:52:49;4.80;99.90
1702;DHT22;848;48.354;10.064;2022-11-21T06:55:16;4.80;99.90
1702;DHT22;848;48.354;10.064;2022-11-21T06:57:44;4.80;99.90
1702;DHT22;848;48.354;10.064;2022-11-21T07:00:12;4.90;99.90
1702;DHT22;848;48.354;10.064;2022-11-21T07:02:39;4.90;99.90
1702;DHT22;848;48.354;10.064;2022-11-21T07:05:07;4.90;99.90
1702;DHT22;848;48.354;10.064;2022-11-21T07:07:34;4.80;99.90
1702;DHT22;848;48.354;10.064;2022-11-21T07:10:01;4.80;99.90
1702;DHT22;848;48.354;10.064;2022-11-21T07:12:27;4.80;99.90
1702;DHT22;848;48.354;10.064;2022-11-21T07:15:13;4.80;99.90
1702;DHT22;848;48.354;10.064;2022-11-21T07:17:40;4.80;99.90
1702;DHT22;848;48.354;10.064;2022-11-21T07:20:08;5.00;99.90
1702;DHT22;848;48.354;10.064;2022-11-21T07:22:35;4.80;99.90
1702;DHT22;848;48.354;10.064;2022-11-21T07:25:03;4.80;99.90
1702;DHT22;848;48.354;10.064;2022-11-21T07:27:30;4.80;99.90
1702;DHT22;848;48.354;10.064;2022-11-21T07:29:57;4.80;99.90
1702;DHT22;848;48.354;10.064;2022-11-21T07:32:25;4.80;99.90
1702;DHT22;848;48.354;10.064;2022-11-21T07:34:52;4.90;99.90
1702;DHT22;848;48.354;10.064;2022-11-21T07:37:19;4.90;99.90
1702;DHT22;848;48.354;10.064;2022-11-21T07:39:46;4.90;99.90
1702;DHT22;848;48.354;10.064;2022-11-21T07:42:13;4.90;99.90
1702;DHT22;848;48.354;10.064;2022-11-21T07:44:40;4.90;99.90
1702;DHT22;848;48.354;10.064;2022-11-21T07:47:07;4.90;99.90
1702;DHT22;848;48.354;10.064;2022-11-21T07:49:35;4.90;99.90
1702;DHT22;848;48.354;10.064;2022-11-21T07:52:02;5.00;99.90
1702;DHT22;848;48.354;10.064;2022-11-21T07:54:29;5.00;99.90
1702;DHT22;848;48.354;10.064;2022-11-21T07:56:56;5.00;99.90
1702;DHT22;848;48.354;10.064;2022-11-21T07:59:22;5.00;99.90
1702;DHT22;848;48.354;10.064;2022-11-21T08:01:50;5.00;99.90
1702;DHT22;848;48.354;10.064;2022-11-21T08:04:17;5.10;99.90
1702;DHT22;848;48.354;10.064;2022-11-21T08:06:45;5.10;99.90
1702;DHT22;848;48.354;10.064;2022-11-21T08:09:12;5.20;99.90
1702;DHT22;848;48.354;10.064;2022-11-21T08:11:39;5.20;99.90
1702;DHT22;848;48.354;10.064;2022-11-21T08:14:06;5.20;99.90
1702;DHT22;848;48.354;10.064;2022-11-21T08:16:33;5.30;99.90
1702;DHT22;848;48.354;10.064;2022-11-21T08:19:00;5.30;99.90
1702;DHT22;848;48.354;10.064;2022-11-21T08:21:27;5.30;99.90
1702;DHT22;848;48.354;10.064;2022-11-21T08:23:55;5.30;99.90
1702;DHT22;848;48.354;10.064;2022-11-21T08:26:22;5.40;99.90
1702;DHT22;848;48.354;10.064;2022-11-21T08:28:49;5.40;99.90
1702;DHT22;848;48.354;10.064;2022-11-21T08:31:18;5.50;99.90
1702;DHT22;848;48.354;10.064;2022-11-21T08:33:44;5.60;99.90
1702;DHT22;848;48.354;10.064;2022-11-21T08:36:11;5.70;99.90
1702;DHT22;848;48.354;10.064;2022-11-21T08:38:38;5.60;99.90
1702;DHT22;848;48.354;10.064;2022-11-21T08:41:07;5.60;99.90
1702;DHT22;848;48.354;10.064;2022-11-21T08:43:53;5.60;99.90
1702;DHT22;848;48.354;10.064;2022-11-21T08:46:20;5.60;99.90
1702;DHT22;848;48.354;10.064;2022-11-21T08:48:51;5.70;99.90
1702;DHT22;848;48.354;10.064;2022-11-21T08:51:18;5.70;99.90
1702;DHT22;848;48.354;10.064;2022-11-21T08:53:45;5.90;99.90
1702;DHT22;848;48.354;10.064;2022-11-21T08:56:13;6.00;99.90
1702;DHT22;848;48.354;10.064;2022-11-21T08:58:40;6.10;99.90
1702;DHT22;848;48.354;10.064;2022-11-21T09:01:07;6.20;99.90
1702;DHT22;848;48.354;10.064;2022-11-21T09:03:34;6.20;99.90
1702;DHT22;848;48.354;10.064;2022-11-21T09:06:01;6.20;99.90
1702;DHT22;848;48.354;10.064;2022-11-21T09:08:28;6.20;99.90
1702;DHT22;848;48.354;10.064;2022-11-21T09:10:58;6.30;99.90
1702;DHT22;848;48.354;10.064;2022-11-21T09:13:30;6.30;99.90
1702;DHT22;848;48.354;10.064;2022-11-21T09:15:57;6.30;99.90
1702;DHT22;848;48.354;10.064;2022-11-21T09:18:41;6.30;99.90
1702;DHT22;848;48.354;10.064;2022-11-21T09:21:08;6.30;99.90
1702;DHT22;848;48.354;10.064;2022-11-21T09:23:35;6.30;99.90
1702;DHT22;848;48.354;10.064;2022-11-21T09:26:01;6.30;99.90
1702;DHT22;848;48.354;10.064;2022-11-21T09:28:30;6.40;99.90
1702;DHT22;848;48.354;10.064;2022-11-21T09:30:56;6.40;99.90
1702;DHT22;848;48.354;10.064;2022-11-21T09:33:23;6.40;99.90
1702;DHT22;848;48.354;10.064;2022-11-21T09:35:50;6.40;99.90
1702;DHT22;848;48.354;10.064;2022-11-21T09:38:18;6.40;99.90
1702;DHT22;848;48.354;10.064;2022-11-21T09:40:46;6.50;99.90
1702;DHT22;848;48.354;10.064;2022-11-21T09:43:39;6.50;99.90
1702;DHT22;848;48.354;10.064;2022-11-21T09:46:10;6.60;99.90
1702;DHT22;848;48.354;10.064;2022-11-21T09:48:45;6.50;99.90
1702;DHT22;848;48.354;10.064;2022-11-21T09:51:15;6.60;99.90
1702;DHT22;848;48.354;10.064;2022-11-21T09:53:50;6.60;99.90
1702;DHT22;848;48.354;10.064;2022-11-21T09:56:20;6.50;99.90
1702;DHT22;848;48.354;10.064;2022-11-21T09:58:56;6.60;99.90
1702;DHT22;848;48.354;10.064;2022-11-21T10:01:30;6.70;99.90
1702;DHT22;848;48.354;10.064;2022-11-21T10:04:01;6.70;99.90
1702;DHT22;848;48.354;10.064;2022-11-21T10:06:29;6.70;99.90
1702;DHT22;848;48.354;10.064;2022-11-21T10:09:01;6.80;99.90
1702;DHT22;848;48.354;10.064;2022-11-21T10:11:40;6.90;99.90
1702;DHT22;848;48.354;10.064;2022-11-21T10:14:31;7.00;99.90
1702;DHT22;848;48.354;10.064;2022-11-21T10:17:08;6.90;99.90
1702;DHT22;848;48.354;10.064;2022-11-21T10:19:55;6.90;99.90
1702;DHT22;848;48.354;10.064;2022-11-21T10:22:43;7.00;99.90
1702;DHT22;848;48.354;10.064;2022-11-21T10:25:21;6.90;99.90
1702;DHT22;848;48.354;10.064;2022-11-21T10:27:52;6.90;99.90
1702;DHT22;848;48.354;10.064;2022-11-21T10:30:22;7.00;99.90
1702;DHT22;848;48.354;10.064;2022-11-21T10:32:52;7.00;99.90
1702;DHT22;848;48.354;10.064;2022-11-21T10:35:22;7.10;99.90
1702;DHT22;848;48.354;10.064;2022-11-21T10:37:51;7.10;99.90
1702;DHT22;848;48.354;10.064;2022-11-21T10:40:34;7.10;99.90
1702;DHT22;848;48.354;10.064;2022-11-21T10:43:06;7.20;99.90
1702;DHT22;848;48.354;10.064;2022-11-21T10:45:49;7.10;99.90
1702;DHT22;848;48.354;10.064;2022-11-21T10:48:17;7.30;99.90
1702;DHT22;848;48.354;10.064;2022-11-21T10:50:53;7.30;99.90
1702;DHT22;848;48.354;10.064;2022-11-21T10:53:25;7.40;99.90
1702;DHT22;848;48.354;10.064;2022-11-21T10:56:12;7.40;99.90
1702;DHT22;848;48.354;10.064;2022-11-21T10:58:43;7.50;99.90
1702;DHT22;848;48.354;10.064;2022-11-21T11:01:23;7.60;99.90
1702;DHT22;848;48.354;10.064;2022-11-21T11:04:15;7.70;99.90
1702;DHT22;848;48.354;10.064;2022-11-21T11:06:44;7.80;99.90
1702;DHT22;848;48.354;10.064;2022-11-21T11:09:22;7.70;99.90
1702;DHT22;848;48.354;10.064;2022-11-21T11:11:50;7.70;99.90
1702;DHT22;848;48.354;10.064;2022-11-21T11:14:29;7.70;99.90
1702;DHT22;848;48.354;10.064;2022-11-21T11:16:58;7.70;99.90
1702;DHT22;848;48.354;10.064;2022-11-21T11:19:28;7.80;99.90
1702;DHT22;848;48.354;10.064;2022-11-21T11:21:55;7.80;99.90
1702;DHT22;848;48.354;10.064;2022-11-21T11:24:24;7.80;99.90
1702;DHT22;848;48.354;10.064;2022-11-21T11:26:58;7.70;99.90
1702;DHT22;848;48.354;10.064;2022-11-21T11:29:26;7.70;99.90
1702;DHT22;848;48.354;10.064;2022-11-21T11:31:56;7.70;99.90
1702;DHT22;848;48.354;10.064;2022-11-21T11:34:35;7.70;99.90
1702;DHT22;848;48.354;10.064;2022-11-21T11:37:11;7.70;99.90
1702;DHT22;848;48.354;10.064;2022-11-21T11:39:42;7.90;99.90
1702;DHT22;848;48.354;10.064;2022-11-21T11:42:25;7.70;99.90
1702;DHT22;848;48.354;10.064;2022-11-21T11:45:28;7.70;99.90
1702;DHT22;848;48.354;10.064;2022-11-21T11:48:14;7.80;99.90
1702;DHT22;848;48.354;10.064;2022-11-21T11:50:47;7.80;99.90
1702;DHT22;848;48.354;10.064;2022-11-21T11:53:17;7.80;99.90
1702;DHT22;848;48.354;10.064;2022-11-21T11:55:48;7.70;99.90
1702;DHT22;848;48.354;10.064;2022-11-21T11:58:22;7.70;99.90
1702;DHT22;848;48.354;10.064;2022-11-21T12:00:57;7.80;99.90
1702;DHT22;848;48.354;10.064;2022-11-21T12:03:33;7.80;99.90
1702;DHT22;848;48.354;10.064;2022-11-21T12:06:10;7.90;99.90
1702;DHT22;848;48.354;10.064;2022-11-21T12:08:42;7.90;99.90
1702;DHT22;848;48.354;10.064;2022-11-21T12:11:19;7.90;99.90
1702;DHT22;848;48.354;10.064;2022-11-21T12:14:13;8.00;99.90
1702;DHT22;848;48.354;10.064;2022-11-21T12:17:04;8.00;99.90
1702;DHT22;848;48.354;10.064;2022-11-21T12:19:36;7.90;99.90
1702;DHT22;848;48.354;10.064;2022-11-21T12:22:04;7.80;99.90
1702;DHT22;848;48.354;10.064;2022-11-21T12:24:33;7.80;99.90
1702;DHT22;848;48.354;10.064;2022-11-21T12:27:09;7.70;99.90
1702;DHT22;848;48.354;10.064;2022-11-21T12:29:55;7.80;99.90
1702;DHT22;848;48.354;10.064;2022-11-21T12:32:37;7.80;99.90
1702;DHT22;848;48.354;10.064;2022-11-21T12:35:35;7.80;99.90
1702;DHT22;848;48.354;10.064;2022-11-21T12:38:15;7.90;99.90
1702;DHT22;848;48.354;10.064;2022-11-21T12:41:00;7.90;99.90
1702;DHT22;848;48.354;10.064;2022-11-21T12:44:01;7.90;99.90
1702;DHT22;848;48.354;10.064;2022-11-21T12:46:40;7.90;99.90
1702;DHT22;848;48.354;10.064;2022-11-21T12:49:15;7.90;99.90
1702;DHT22;848;48.354;10.064;2022-11-21T12:52:10;7.90;99.90
1702;DHT22;848;48.354;10.064;2022-11-21T12:55:17;7.80;99.90
1702;DHT22;848;48.354;10.064;2022-11-21T12:58:04;7.80;99.90
1702;DHT22;848;48.354;10.064;2022-11-21T13:00:39;7.80;99.90
1702;DHT22;848;48.354;10.064;2022-11-21T13:03:28;7.80;99.90
1702;DHT22;848;48.354;10.064;2022-11-21T13:05:59;7.80;99.90
1702;DHT22;848;48.354;10.064;2022-11-21T13:08:30;7.80;99.90
1702;DHT22;848;48.354;10.064;2022-11-21T13:11:06;7.90;99.90
1702;DHT22;848;48.354;10.064;2022-11-21T13:14:00;7.90;99.90
1702;DHT22;848;48.354;10.064;2022-11-21T13:16:30;8.00;99.90
1702;DHT22;848;48.354;10.064;2022-11-21T13:19:16;8.10;99.90
1702;DHT22;848;48.354;10.064;2022-11-21T13:21:47;8.20;99.90
1702;DHT22;848;48.354;10.064;2022-11-21T13:27:26;8.40;99.90
1702;DHT22;848;48.354;10.064;2022-11-21T13:30:19;8.40;99.90
1702;DHT22;848;48.354;10.064;2022-11-21T13:32:47;8.40;99.90
1702;DHT22;848;48.354;10.064;2022-11-21T13:38:31;8.30;99.90
1702;DHT22;848;48.354;10.064;2022-11-21T13:44:38;8.30;99.90
1702;DHT22;848;48.354;10.064;2022-11-21T13:47:11;8.30;99.90
1702;DHT22;848;48.354;10.064;2022-11-21T13:50:00;8.30;99.90
1702;DHT22;848;48.354;10.064;2022-11-21T13:52:35;8.30;99.90
1702;DHT22;848;48.354;10.064;2022-11-21T13:55:26;8.20;99.90
1702;DHT22;848;48.354;10.064;2022-11-21T13:58:08;8.20;99.90
1702;DHT22;848;48.354;10.064;2022-11-21T14:01:04;8.20;99.90
1702;DHT22;848;48.354;10.064;2022-11-21T14:06:42;8.00;99.90
1702;DHT22;848;48.354;10.064;2022-11-21T14:09:26;8.00;99.90
1702;DHT22;848;48.354;10.064;2022-11-21T14:11:59;8.00;99.90
1702;DHT22;848;48.354;10.064;2022-11-21T14:14:33;8.00;99.90
1702;DHT22;848;48.354;10.064;2022-11-21T14:17:13;7.90;99.90
1702;DHT22;848;48.354;10.064;2022-11-21T14:19:42;7.90;99.90
1702;DHT22;848;48.354;10.064;2022-11-21T14:22:15;7.80;99.90
1702;DHT22;848;48.354;10.064;2022-11-21T14:24:43;7.70;99.90
1702;DHT22;848;48.354;10.064;2022-11-21T14:27:16;7.70;99.90
1702;DHT22;848;48.354;10.064;2022-11-21T14:29:46;7.60;99.90
1702;DHT22;848;48.354;10.064;2022-11-21T14:32:14;7.60;99.90
1702;DHT22;848;48.354;10.064;2022-11-21T14:34:41;7.50;99.90
1702;DHT22;848;48.354;10.064;2022-11-21T14:37:10;7.40;99.90
1702;DHT22;848;48.354;10.064;2022-11-21T14:39:39;7.30;99.90
1702;DHT22;848;48.354;10.064;2022-11-21T14:42:11;7.20;99.90
1702;DHT22;848;48.354;10.064;2022-11-21T14:44:39;7.20;99.90
1702;DHT22;848;48.354;10.064;2022-11-21T14:47:14;7.10;99.90
1702;DHT22;848;48.354;10.064;2022-11-21T14:49:48;7.00;99.90
1702;DHT22;848;48.354;10.064;2022-11-21T14:52:24;6.90;99.90
1702;DHT22;848;48.354;10.064;2022-11-21T14:54:54;6.80;99.90
1702;DHT22;848;48.354;10.064;2022-11-21T14:57:23;6.80;99.90
1702;DHT22;848;48.354;10.064;2022-11-21T14:59:55;6.60;99.90
1702;DHT22;848;48.354;10.064;2022-11-21T15:02:26;6.50;99.90
1702;DHT22;848;48.354;10.064;2022-11-21T15:04:56;6.30;99.90
1702;DHT22;848;48.354;10.064;2022-11-21T15:07:27;6.40;99.90
1702;DHT22;848;48.354;10.064;2022-11-21T15:09:54;6.10;99.90
1702;DHT22;848;48.354;10.064;2022-11-21T15:12:29;6.10;99.90
1702;DHT22;848;48.354;10.064;2022-11-21T15:14:59;6.00;99.90
1702;DHT22;848;48.354;10.064;2022-11-21T15:17:29;5.80;99.90
1702;DHT22;848;48.354;10.064;2022-11-21T15:20:17;5.70;99.90
1702;DHT22;848;48.354;10.064;2022-11-21T15:22:46;5.70;99.90
1702;DHT22;848;48.354;10.064;2022-11-21T15:25:17;5.60;99.90
1702;DHT22;848;48.354;10.064;2022-11-21T15:27:47;5.50;99.90
1702;DHT22;848;48.354;10.064;2022-11-21T15:33:08;5.30;99.90
1702;DHT22;848;48.354;10.064;2022-11-21T15:35:47;5.20;99.90
1702;DHT22;848;48.354;10.064;2022-11-21T15:38:26;5.20;99.90
1702;DHT22;848;48.354;10.064;2022-11-21T15:41:03;5.10;99.90
1702;DHT22;848;48.354;10.064;2022-11-21T15:43:40;5.10;99.90
1702;DHT22;848;48.354;10.064;2022-11-21T15:46:16;5.10;99.90
1702;DHT22;848;48.354;10.064;2022-11-21T15:48:46;5.10;99.90
1702;DHT22;848;48.354;10.064;2022-11-21T15:51:13;5.10;99.90
1702;DHT22;848;48.354;10.064;2022-11-21T15:53:41;5.00;99.90
1702;DHT22;848;48.354;10.064;2022-11-21T15:56:10;5.00;99.90
1702;DHT22;848;48.354;10.064;2022-11-21T15:58:38;4.90;99.90
1702;DHT22;848;48.354;10.064;2022-11-21T16:01:05;4.90;99.90
1702;DHT22;848;48.354;10.064;2022-11-21T16:03:32;4.80;99.90
1702;DHT22;848;48.354;10.064;2022-11-21T16:06:00;4.80;99.90
1702;DHT22;848;48.354;10.064;2022-11-21T16:08:27;4.80;99.90
1702;DHT22;848;48.354;10.064;2022-11-21T16:10:57;4.80;99.90
1702;DHT22;848;48.354;10.064;2022-11-21T16:13:25;4.80;99.90
1702;DHT22;848;48.354;10.064;2022-11-21T16:15:52;4.80;99.90
1702;DHT22;848;48.354;10.064;2022-11-21T16:18:19;4.80;99.90
1702;DHT22;848;48.354;10.064;2022-11-21T16:20:46;4.90;99.90
1702;DHT22;848;48.354;10.064;2022-11-21T16:23:14;4.80;99.90
1702;DHT22;848;48.354;10.064;2022-11-21T16:25:51;4.80;99.90
1702;DHT22;848;48.354;10.064;2022-11-21T16:28:18;4.70;99.90
1702;DHT22;848;48.354;10.064;2022-11-21T16:30:45;4.90;99.90
1702;DHT22;848;48.354;10.064;2022-11-21T16:33:12;4.60;99.90
1702;DHT22;848;48.354;10.064;2022-11-21T16:35:38;4.70;99.90
1702;DHT22;848;48.354;10.064;2022-11-21T16:38:06;4.70;99.90
1702;DHT22;848;48.354;10.064;2022-11-21T16:40:34;4.50;99.90
1702;DHT22;848;48.354;10.064;2022-11-21T16:43:07;4.40;99.90
1702;DHT22;848;48.354;10.064;2022-11-21T16:45:35;4.50;99.90
1702;DHT22;848;48.354;10.064;2022-11-21T16:48:02;4.30;99.90
1702;DHT22;848;48.354;10.064;2022-11-21T16:50:29;4.30;99.90
1702;DHT22;848;48.354;10.064;2022-11-21T16:52:55;4.30;99.90
1702;DHT22;848;48.354;10.064;2022-11-21T16:55:22;4.30;99.90
1702;DHT22;848;48.354;10.064;2022-11-21T16:57:52;4.30;99.90